Time;durP1;ratioP1;P1;durP2;ratioP2;P2;SDS_P1;SDS_P2;PMS_P1;PMS_P2;Temp;Humidity;BMP_temperature;BMP_pressure;BME280_temperature;BME280_humidity;BME280_pressure;Samples;Min_cycle;Max_cycle;Signal;HPM_P1;HPM_P2
2022/09/29 00:01:37;;;;;;;8.35;3.55;;;;;;;5.08;100.00;95856.88;5069159;28;20102;-66
2022/09/29 00:04:03;;;;;;;8.30;3.80;;;;;;;4.93;100.00;95863.72;5069336;28;20529;-66
2022/09/29 00:06:30;;;;;;;5.75;3.35;;;;;;;4.79;100.00;95868.69;5071562;28;20310;-66
2022/09/29 00:08:57;;;;;;;7.47;3.50;;;;;;;4.75;100.00;95870.25;5089928;28;20046;-67
2022/09/29 00:11:23;;;;;;;7.60;3.20;;;;;;;4.87;100.00;95867.41;5075929;28;20051;-66
2022/09/29 00:13:50;;;;;;;5.75;3.05;;;;;;;4.82;100.00;95862.00;5089848;28;20047;-66
2022/09/29 00:16:16;;;;;;;7.68;3.20;;;;;;;4.91;100.00;95863.16;5075950;28;20054;-66
2022/09/29 00:18:43;;;;;;;6.55;3.22;;;;;;;4.96;100.00;95859.72;5069166;28;20051;-66
2022/09/29 00:21:10;;;;;;;;;;;;;;;4.92;100.00;95858.63;5069134;28;20072;-67
2022/09/29 00:23:37;;;;;;;8.90;3.13;;;;;;;4.99;100.00;95853.88;5069536;28;19954;-66
2022/09/29 00:26:14;;;;;;;7.05;2.80;;;;;;;5.04;100.00;95853.09;5068871;28;20411;-66
2022/09/29 00:28:51;;;;;;;8.55;3.10;;;;;;;4.99;100.00;95848.50;5068807;28;20131;-66
2022/09/29 00:31:19;;;;;;;6.35;3.85;;;;;;;4.99;100.00;95853.88;5066973;28;20076;-66
2022/09/29 00:33:46;;;;;;;8.02;3.25;;;;;;;5.04;100.00;95848.53;5069371;28;20048;-66
2022/09/29 00:36:15;;;;;;;6.32;3.25;;;;;;;5.16;100.00;95842.22;5069054;28;20044;-66
2022/09/29 00:38:43;;;;;;;7.00;2.95;;;;;;;5.05;100.00;95842.13;5069416;28;20480;-67
2022/09/29 00:41:18;;;;;;;5.93;3.03;;;;;;;4.93;100.00;95841.47;5068364;28;20131;-67
2022/09/29 00:43:46;;;;;;;4.55;2.67;;;;;;;4.80;100.00;95834.66;5049370;28;20045;-66
2022/09/29 00:46:27;;;;;;;5.18;3.10;;;;;;;4.94;100.00;95843.09;5061521;28;20598;-64
2022/09/29 00:49:01;;;;;;;8.30;3.00;;;;;;;4.88;100.00;95844.91;5068463;28;20128;-66
2022/09/29 00:51:29;;;;;;;7.22;2.90;;;;;;;4.90;100.00;95839.31;5068019;28;20048;-66
2022/09/29 00:53:56;;;;;;;5.80;2.95;;;;;;;5.00;100.00;95841.25;5078957;28;20543;-66
2022/09/29 00:56:24;;;;;;;6.45;3.10;;;;;;;5.01;100.00;95841.00;5067908;28;20057;-66
2022/09/29 00:59:00;;;;;;;5.90;3.05;;;;;;;5.19;100.00;95837.16;5068819;28;20036;-66
2022/09/29 01:01:30;;;;;;;8.48;3.65;;;;;;;5.17;100.00;95827.72;5068079;28;20037;-66
2022/09/29 01:04:03;;;;;;;9.05;3.42;;;;;;;5.19;100.00;95823.72;5067175;28;20123;-66
2022/09/29 01:06:42;;;;;;;7.60;3.10;;;;;;;5.25;100.00;95829.94;5066864;28;20474;-66
2022/09/29 01:09:17;;;;;;;4.78;3.13;;;;;;;5.36;100.00;95825.47;5059694;28;20432;-66
2022/09/29 01:11:44;;;;;;;7.13;3.17;;;;;;;5.40;100.00;95825.75;5071433;28;20071;-66
2022/09/29 01:14:11;;;;;;;7.05;3.53;;;;;;;5.37;100.00;95823.59;5071122;28;20131;-67
2022/09/29 01:16:38;;;;;;;5.55;3.03;;;;;;;5.42;100.00;95823.66;5067475;28;20522;-66
2022/09/29 01:19:09;;;;;;;6.05;3.22;;;;;;;5.51;100.00;95819.41;5064610;28;20086;-67
2022/09/29 01:21:57;;;;;;;9.32;4.18;;;;;;;5.59;100.00;95818.09;5069106;28;20066;-66
2022/09/29 01:24:49;;;;;;;6.82;3.38;;;;;;;5.57;100.00;95818.38;5047894;28;20120;-66
2022/09/29 01:27:34;;;;;;;6.30;3.40;;;;;;;5.59;100.00;95818.94;5050586;28;20032;-66
2022/09/29 01:30:10;;;;;;;9.15;3.22;;;;;;;5.62;100.00;95822.97;5067096;28;20071;-66
2022/09/29 01:33:16;;;;;;;6.88;2.88;;;;;;;5.78;100.00;95821.19;5060848;28;20198;-66
2022/09/29 01:35:51;;;;;;;7.25;3.40;;;;;;;5.78;100.00;95817.72;5053728;28;20072;-66
2022/09/29 01:38:52;;;;;;;5.30;3.08;;;;;;;5.78;100.00;95823.88;5067407;28;20512;-66
2022/09/29 01:41:31;;;;;;;5.20;2.93;;;;;;;5.82;100.00;95816.13;5067875;28;20048;-66
2022/09/29 01:44:05;;;;;;;6.85;3.13;;;;;;;5.82;100.00;95827.66;5088101;28;20134;-66
2022/09/29 01:46:55;;;;;;;6.85;2.80;;;;;;;5.92;100.00;95826.91;5056941;28;20295;-67
2022/09/29 01:49:26;;;;;;;6.30;3.15;;;;;;;5.91;100.00;95829.84;5065315;28;20262;-67
2022/09/29 01:52:07;;;;;;;5.45;2.97;;;;;;;5.89;100.00;95830.13;5067444;28;20127;-67
2022/09/29 01:54:48;;;;;;;6.13;3.28;;;;;;;5.92;100.00;95826.91;5056612;28;20123;-67
2022/09/29 01:57:28;;;;;;;4.97;2.97;;;;;;;5.95;100.00;95825.59;5051575;28;20116;-66
2022/09/29 02:00:09;;;;;;;6.45;2.70;;;;;;;5.94;100.00;95834.72;5059791;28;20499;-66
2022/09/29 02:03:32;;;;;;;6.38;2.88;;;;;;;5.91;100.00;95837.91;5067299;28;20423;-67
2022/09/29 02:06:03;;;;;;;5.85;2.83;;;;;;;5.97;100.00;95837.69;4977464;28;20133;-66
2022/09/29 02:08:39;;;;;;;5.10;2.90;;;;;;;5.92;100.00;95832.28;5052971;28;20128;-66
2022/09/29 02:11:13;;;;;;;5.38;2.70;;;;;;;5.95;100.00;95831.78;5071866;28;20040;-66
2022/09/29 02:13:42;;;;;;;6.15;3.63;;;;;;;6.01;100.00;95840.66;5087153;28;20464;-66
2022/09/29 02:16:11;;;;;;;5.05;2.83;;;;;;;6.07;100.00;95836.97;5072389;28;20040;-66
2022/09/29 02:18:44;;;;;;;7.13;3.03;;;;;;;6.18;100.00;95835.13;5066293;28;20040;-66
2022/09/29 02:21:11;;;;;;;6.28;3.20;;;;;;;6.14;100.00;95835.91;5066644;28;20119;-66
2022/09/29 02:23:37;;;;;;;5.20;2.67;;;;;;;6.13;100.00;95840.50;5067381;28;20041;-66
2022/09/29 02:26:04;;;;;;;5.95;2.97;;;;;;;6.16;100.00;95836.47;5066571;28;20486;-66
2022/09/29 02:28:30;;;;;;;10.60;2.70;;;;;;;6.09;100.00;95842.88;5067170;28;20042;-67
2022/09/29 02:30:57;;;;;;;6.32;3.47;;;;;;;6.10;100.00;95838.31;5065950;28;20147;-67
2022/09/29 02:33:25;;;;;;;7.05;3.38;;;;;;;6.12;100.00;95841.56;5066891;28;20511;-66
2022/09/29 02:36:03;;;;;;;8.88;3.38;;;;;;;6.02;100.00;95836.91;5065564;28;20123;-66
2022/09/29 02:38:56;;;;;;;6.63;3.00;;;;;;;5.98;100.00;95833.91;5066596;28;20218;-66
2022/09/29 02:41:44;;;;;;;5.60;2.72;;;;;;;6.01;100.00;95832.59;5066876;28;20091;-67
2022/09/29 02:44:24;;;;;;;6.05;3.03;;;;;;;6.07;100.00;95834.28;5062659;28;20050;-66
2022/09/29 02:47:13;;;;;;;8.32;2.95;;;;;;;6.07;100.00;95834.28;5066303;28;20586;-66
2022/09/29 02:50:02;;;;;;;5.80;3.00;;;;;;;6.09;100.00;95834.03;5066269;28;20295;-66
2022/09/29 02:52:45;;;;;;;7.13;2.92;;;;;;;6.13;100.00;95834.28;5050666;28;20044;-66
2022/09/29 02:55:17;;;;;;;6.82;3.35;;;;;;;6.10;100.00;95833.75;5066101;28;20123;-67
2022/09/29 02:57:50;;;;;;;10.73;3.50;;;;;;;6.11;100.00;95826.50;5065085;28;20142;-66
2022/09/29 03:00:18;;;;;;;6.35;2.97;;;;;;;6.12;100.00;95828.13;5062677;28;20075;-66
2022/09/29 03:02:45;;;;;;;7.25;3.72;;;;;;;6.18;100.00;95824.38;5065849;28;20115;-66
2022/09/29 03:05:15;;;;;;;7.18;2.92;;;;;;;6.18;100.00;95829.75;5066642;28;20438;-66
2022/09/29 03:07:41;;;;;;;5.78;2.80;;;;;;;6.26;100.00;95824.97;5065817;28;20435;-66
2022/09/29 03:10:09;;;;;;;4.97;2.60;;;;;;;6.31;100.00;95820.41;5065175;28;20040;-66
2022/09/29 03:12:37;;;;;;;6.32;3.20;;;;;;;6.29;100.00;95814.47;5076535;28;20433;-67
2022/09/29 03:15:05;;;;;;;6.63;2.90;;;;;;;6.42;100.00;95817.75;5086223;28;20044;-66
2022/09/29 03:17:32;;;;;;;5.90;2.83;;;;;;;6.46;100.00;95821.53;5078277;28;20385;-67
2022/09/29 03:19:59;;;;;;;4.40;2.50;;;;;;;6.48;100.00;95820.19;5066183;28;20052;-64
2022/09/29 03:22:26;;;;;;;6.47;2.63;;;;;;;6.53;100.00;95811.34;5065024;28;20421;-66
2022/09/29 03:24:52;;;;;;;6.18;4.18;;;;;;;6.50;100.00;95815.34;5066021;28;20481;-66
2022/09/29 03:27:19;;;;;;;5.20;2.40;;;;;;;6.52;100.00;95814.31;5065349;28;20044;-65
2022/09/29 03:29:45;;;;;;;5.32;2.75;;;;;;;6.59;100.00;95817.53;5065812;28;20086;-63
2022/09/29 03:32:12;;;;;;;6.70;2.55;;;;;;;6.60;100.00;95811.09;5065354;28;20090;-63
2022/09/29 03:34:38;;;;;;;5.60;2.88;;;;;;;6.59;100.00;95812.97;5066762;28;20086;-66
2022/09/29 03:37:05;;;;;;;7.07;2.63;;;;;;;6.54;100.00;95812.13;5065028;28;20055;-67
2022/09/29 03:39:31;;;;;;;6.05;2.85;;;;;;;6.39;100.00;95802.97;5065877;28;20043;-66
2022/09/29 03:41:57;;;;;;;6.95;2.63;;;;;;;6.37;100.00;95807.78;5071741;28;20115;-67
2022/09/29 03:44:24;;;;;;;5.47;2.67;;;;;;;6.34;100.00;95805.66;5086219;28;20062;-64
2022/09/29 03:46:50;;;;;;;5.57;2.78;;;;;;;6.19;100.00;95801.03;5080084;28;20117;-63
2022/09/29 03:49:17;;;;;;;6.53;2.58;;;;;;;6.11;100.00;95802.31;5065920;28;20047;-67
2022/09/29 03:51:43;;;;;;;6.00;2.55;;;;;;;5.97;100.00;95810.81;5058054;28;20052;-66
2022/09/29 03:54:10;;;;;;;4.70;2.75;;;;;;;5.79;100.00;95811.25;5074104;28;20366;-66
2022/09/29 03:56:37;;;;;;;5.40;2.90;;;;;;;5.49;100.00;95813.47;5065570;28;20044;-65
2022/09/29 03:59:07;;;;;;;7.55;3.42;;;;;;;5.34;100.00;95816.84;5066382;28;20076;-66
2022/09/29 04:01:34;;;;;;;7.15;3.05;;;;;;;5.28;100.00;95812.53;5068932;28;20044;-67
2022/09/29 04:04:01;;;;;;;10.10;3.40;;;;;;;5.39;100.00;95822.28;5066451;28;20583;-66
2022/09/29 04:06:27;;;;;;;8.23;3.03;;;;;;;5.52;100.00;95821.03;5065454;28;20051;-66
2022/09/29 04:08:53;;;;;;;4.68;2.83;;;;;;;5.37;100.00;95813.66;5065929;28;20462;-67
2022/09/29 04:11:20;;;;;;;5.47;3.35;;;;;;;5.42;100.00;95818.28;5065801;28;20131;-66
2022/09/29 04:13:46;;;;;;;6.88;2.88;;;;;;;5.33;100.00;95813.38;5065893;28;20040;-66
2022/09/29 04:16:13;;;;;;;6.97;3.10;;;;;;;5.20;100.00;95808.44;5065758;28;20127;-66
2022/09/29 04:18:39;;;;;;;7.40;3.15;;;;;;;5.19;100.00;95814.84;5065351;28;20041;-66
2022/09/29 04:21:07;;;;;;;4.65;2.80;;;;;;;5.22;100.00;95811.66;5064542;28;20279;-66
2022/09/29 04:23:34;;;;;;;5.15;2.88;;;;;;;5.06;100.00;95813.44;5065691;28;20149;-66
2022/09/29 04:26:01;;;;;;;9.73;3.10;;;;;;;4.82;100.00;95819.91;5064320;28;20135;-66
2022/09/29 04:28:30;;;;;;;5.55;2.90;;;;;;;4.73;100.00;95813.38;5065198;28;20071;-66
2022/09/29 04:30:56;;;;;;;4.45;3.03;;;;;;;4.67;100.00;95819.75;5059188;28;20060;-66
2022/09/29 04:33:23;;;;;;;6.93;3.08;;;;;;;4.60;100.00;95825.31;5063342;28;20068;-66
2022/09/29 04:35:50;;;;;;;7.43;3.10;;;;;;;4.64;100.00;95820.28;5064946;28;20131;-66
2022/09/29 04:38:16;;;;;;;6.53;3.15;;;;;;;4.77;100.00;95825.22;5065303;28;20048;-66
2022/09/29 04:40:43;;;;;;;6.85;3.38;;;;;;;4.68;100.00;95827.53;5068397;28;20112;-66
2022/09/29 04:43:10;;;;;;;6.28;3.35;;;;;;;4.64;100.00;95820.28;5069659;28;20128;-66
2022/09/29 04:45:36;;;;;;;8.25;3.33;;;;;;;4.40;100.00;95816.00;5068655;28;20132;-66
2022/09/29 04:48:03;;;;;;;7.60;3.50;;;;;;;4.46;100.00;95824.09;5068544;28;20052;-67
2022/09/29 04:50:29;;;;;;;5.32;3.08;;;;;;;4.56;100.00;95824.19;5067358;28;20392;-66
2022/09/29 04:52:56;;;;;;;5.90;3.38;;;;;;;4.49;100.00;95826.28;5064487;28;20132;-66
2022/09/29 04:55:22;;;;;;;6.57;3.83;;;;;;;4.58;100.00;95822.09;5067205;28;20127;-65
2022/09/29 04:57:49;;;;;;;6.85;3.58;;;;;;;4.73;100.00;95821.44;5068039;28;20128;-65
2022/09/29 05:00:16;;;;;;;7.20;3.85;;;;;;;4.65;100.00;95821.88;5068365;28;20040;-65
2022/09/29 05:02:43;;;;;;;9.35;4.45;;;;;;;4.77;100.00;95821.72;5068608;28;20610;-65
2022/09/29 05:05:15;;;;;;;10.02;4.80;;;;;;;4.83;100.00;95828.75;5067602;28;20068;-65
2022/09/29 05:07:41;;;;;;;11.70;4.45;;;;;;;5.01;100.00;95819.53;5068179;28;20044;-66
2022/09/29 05:10:08;;;;;;;11.20;5.28;;;;;;;4.94;100.00;95830.47;5067304;28;20046;-65
2022/09/29 05:12:35;;;;;;;13.13;4.32;;;;;;;5.02;100.00;95820.34;5076005;28;20128;-65
2022/09/29 05:15:03;;;;;;;12.68;4.95;;;;;;;5.02;100.00;95831.88;5066140;28;20466;-65
2022/09/29 05:17:30;;;;;;;18.20;7.35;;;;;;;4.90;100.00;95834.72;5065743;28;20504;-65
2022/09/29 05:19:56;;;;;;;18.38;7.40;;;;;;;4.80;100.00;95840.78;5066495;28;20298;-65
2022/09/29 05:22:24;;;;;;;18.05;7.00;;;;;;;4.79;100.00;95846.44;5066039;28;20227;-64
2022/09/29 05:24:51;;;;;;;16.02;7.25;;;;;;;4.78;100.00;95842.94;5069171;28;20105;-65
2022/09/29 05:27:18;;;;;;;11.73;5.85;;;;;;;4.74;100.00;95839.13;5072344;28;20067;-65
2022/09/29 05:29:44;;;;;;;8.82;5.03;;;;;;;4.85;100.00;95841.91;5067924;28;20037;-65
2022/09/29 05:32:11;;;;;;;8.93;4.53;;;;;;;4.89;100.00;95849.22;5075540;28;20393;-65
2022/09/29 05:34:38;;;;;;;8.02;3.95;;;;;;;4.94;100.00;95853.81;5065716;28;20049;-65
2022/09/29 05:37:04;;;;;;;8.23;4.13;;;;;;;4.88;100.00;95849.47;5066659;28;20127;-65
2022/09/29 05:39:33;;;;;;;8.10;4.68;;;;;;;4.77;100.00;95854.72;5080490;28;20050;-65
2022/09/29 05:42:01;;;;;;;12.57;5.65;;;;;;;4.79;100.00;95852.59;5070346;28;20039;-65
2022/09/29 05:44:28;;;;;;;19.33;6.50;;;;;;;4.80;100.00;95861.47;5065849;28;20404;-65
2022/09/29 05:46:54;;;;;;;12.75;5.13;;;;;;;4.75;100.00;95867.56;5065397;28;20064;-66
2022/09/29 05:49:22;;;;;;;7.80;4.28;;;;;;;4.82;100.00;95868.19;5079079;28;20410;-65
2022/09/29 05:51:48;;;;;;;8.23;4.78;;;;;;;4.90;100.00;95866.13;5064576;28;20504;-64
2022/09/29 05:54:15;;;;;;;8.55;4.78;;;;;;;5.11;100.00;95868.97;5066617;28;20123;-65
2022/09/29 05:56:41;;;;;;;9.30;5.20;;;;;;;5.05;100.00;95863.56;5065250;28;20525;-65
2022/09/29 05:59:11;;;;;;;11.35;4.80;;;;;;;5.07;100.00;95860.66;5067680;28;20106;-65
2022/09/29 06:01:37;;;;;;;7.50;4.20;;;;;;;5.04;100.00;95853.91;5067701;28;20462;-65
2022/09/29 06:04:04;;;;;;;9.93;5.20;;;;;;;5.20;100.00;95843.34;5067805;28;20051;-66
2022/09/29 06:06:30;;;;;;;15.27;4.95;;;;;;;5.17;100.00;95852.66;5065006;28;20058;-65
2022/09/29 06:08:58;;;;;;;14.18;5.32;;;;;;;5.05;100.00;95844.78;5072634;28;20119;-65
2022/09/29 06:11:26;;;;;;;8.98;4.95;;;;;;;5.03;100.00;95846.94;5081363;28;20076;-65
2022/09/29 06:13:54;;;;;;;11.07;4.88;;;;;;;4.86;100.00;95860.44;5087580;28;20047;-66
2022/09/29 06:16:23;;;;;;;14.20;6.05;;;;;;;4.84;100.00;95861.75;5069476;28;20143;-66
2022/09/29 06:18:50;;;;;;;21.08;7.85;;;;;;;4.90;100.00;95868.81;5059835;28;20048;-66
2022/09/29 06:21:20;;;;;;;28.83;10.18;;;;;;;4.88;100.00;95866.38;5062977;28;20403;-65
2022/09/29 06:23:46;;;;;;;26.40;8.27;;;;;;;4.93;100.00;95870.97;5049743;28;20105;-65
2022/09/29 06:26:15;;;;;;;20.40;7.88;;;;;;;5.00;100.00;95878.81;5065188;28;20068;-65
2022/09/29 06:28:48;;;;;;;14.10;5.78;;;;;;;5.13;100.00;95880.28;5061990;28;20040;-65
2022/09/29 06:31:18;;;;;;;12.93;6.53;;;;;;;5.32;100.00;95883.41;5067264;28;20252;-65
2022/09/29 06:33:45;;;;;;;11.48;5.60;;;;;;;5.47;100.00;95880.06;5047316;28;20071;-65
2022/09/29 06:39:11;;;;;;;13.32;5.75;;;;;;;5.34;100.00;95889.31;5067224;28;20036;-65
2022/09/29 06:41:38;;;;;;;10.55;5.88;;;;;;;5.36;100.00;95883.69;5068981;28;20113;-65
2022/09/29 06:44:07;;;;;;;10.93;6.00;;;;;;;5.50;100.00;95886.78;5080777;28;20470;-65
2022/09/29 06:46:34;;;;;;;10.45;4.90;;;;;;;5.62;100.00;95881.22;5058461;28;20500;-65
2022/09/29 06:49:01;;;;;;;8.07;4.50;;;;;;;5.84;100.00;95883.81;5066023;28;20163;-65
2022/09/29 06:51:27;;;;;;;8.32;4.32;;;;;;;5.97;100.00;95882.56;5067519;28;20581;-65
2022/09/29 06:54:10;;;;;;;9.25;5.57;;;;;;;6.06;100.00;95885.59;5065083;28;20275;-66
2022/09/29 06:56:38;;;;;;;7.90;5.13;;;;;;;6.18;100.00;95883.50;5064218;28;20051;-66
2022/09/29 06:59:05;;;;;;;8.27;4.55;;;;;;;6.27;100.00;95881.16;5064444;28;20418;-66
2022/09/29 07:01:32;;;;;;;7.05;4.13;;;;;;;6.37;100.00;95881.19;5063794;28;20041;-65
2022/09/29 07:04:01;;;;;;;8.90;5.05;;;;;;;6.44;100.00;95880.94;5064401;28;20124;-65
2022/09/29 07:06:28;;;;;;;7.18;4.40;;;;;;;6.55;100.00;95884.50;5059211;28;20060;-62
2022/09/29 07:08:55;;;;;;;7.70;4.40;;;;;;;6.68;100.00;95879.69;5061977;28;20423;-67
2022/09/29 07:11:22;;;;;;;9.50;5.00;;;;;;;6.73;100.00;95879.72;5064538;28;20040;-62
2022/09/29 07:13:50;;;;;;;7.20;4.20;;;;;;;6.82;100.00;95880.03;5071144;28;20054;-62
2022/09/29 07:16:22;;;;;;;7.85;5.13;;;;;;;6.79;100.00;95881.38;5062035;28;20628;-63
2022/09/29 07:18:49;;;;;;;6.97;4.30;;;;;;;6.87;100.00;95880.03;5063664;28;20207;-61
2022/09/29 07:21:17;;;;;;;10.10;4.40;;;;;;;6.87;100.00;95877.34;5062450;28;20440;-61
2022/09/29 07:23:45;;;;;;;8.23;4.13;;;;;;;7.00;100.00;95881.38;5064406;28;20047;-60
2022/09/29 07:26:13;;;;;;;11.65;5.22;;;;;;;7.15;100.00;95883.34;5062672;28;20072;-61
2022/09/29 07:28:39;;;;;;;10.70;4.75;;;;;;;7.21;100.00;95878.75;5063406;28;20119;-62
2022/09/29 07:31:12;;;;;;;10.32;5.10;;;;;;;7.43;100.00;95886.59;5063770;28;20410;-61
2022/09/29 07:33:46;;;;;;;9.30;4.90;;;;;;;7.42;100.00;95884.97;5061177;28;20097;-61
2022/09/29 07:36:14;;;;;;;8.00;4.75;;;;;;;7.63;100.00;95882.28;5059868;28;20039;-61
2022/09/29 07:38:41;;;;;;;8.05;4.22;;;;;;;7.67;100.00;95891.44;5066119;28;20048;-63
2022/09/29 07:41:10;;;;;;;8.65;4.10;;;;;;;7.60;100.00;95894.41;5065066;28;20047;-61
2022/09/29 07:43:38;;;;;;;8.40;4.85;;;;;;;7.74;100.00;95889.28;5084763;28;20040;-61
2022/09/29 07:46:05;;;;;;;7.65;4.35;;;;;;;7.73;100.00;95892.22;5065623;28;20082;-61
2022/09/29 07:48:33;;;;;;;8.50;3.67;;;;;;;7.85;100.00;95894.66;5065372;28;20140;-62
2022/09/29 07:51:07;;;;;;;5.57;3.53;;;;;;;8.05;100.00;95891.13;5065382;28;20036;-62
2022/09/29 07:53:35;;;;;;;9.65;3.65;;;;;;;8.20;99.40;95893.00;5076163;28;20147;-61
2022/09/29 07:56:21;;;;;;;7.65;3.00;;;;;;;8.36;99.56;95895.66;5045610;28;20542;-62
2022/09/29 07:58:49;;;;;;;8.90;3.72;;;;;;;8.56;97.77;95892.91;5053936;28;20430;-62
2022/09/29 08:01:17;;;;;;;5.30;3.08;;;;;;;8.70;96.62;95893.13;5065333;28;20116;-61
2022/09/29 08:03:49;;;;;;;7.18;4.18;;;;;;;8.80;96.21;95896.88;5064951;28;20052;-62
2022/09/29 08:06:15;;;;;;;6.00;3.30;;;;;;;8.80;95.08;95897.69;5064202;28;20533;-62
2022/09/29 08:08:42;;;;;;;8.77;3.97;;;;;;;8.84;95.21;95898.75;5065444;28;20079;-67
2022/09/29 08:11:25;;;;;;;7.78;3.60;;;;;;;8.98;95.44;95901.66;5065926;28;20048;-62
2022/09/29 08:13:57;;;;;;;;;;;;;;;9.07;95.50;95901.84;5066071;28;20576;-62
2022/09/29 08:16:24;;;;;;;;;;;;;;;8.94;95.24;95897.88;5069813;28;19920;-62
2022/09/29 08:18:51;;;;;;;;;;;;;;;8.86;95.97;95911.97;5068361;28;19924;-61
2022/09/29 08:21:17;;;;;;;;;;;;;;;8.96;96.80;95906.50;5069790;28;19920;-62
2022/09/29 08:23:43;;;;;;;;;;;;;;;8.95;97.11;95907.59;5069433;28;20400;-61
2022/09/29 08:26:12;;;;;;;;;;;;;;;8.88;95.08;95920.56;5068310;28;20006;-62
2022/09/29 08:28:40;;;;;;;;;;;;;;;8.86;94.44;95922.75;5069462;28;19927;-60
2022/09/29 08:31:12;;;;;;;;;;;;;;;8.80;94.47;95919.28;5067846;28;19921;-61
2022/09/29 08:33:39;;;;;;;;;;;;;;;8.84;93.82;95920.34;5070057;28;19924;-61
2022/09/29 08:36:13;;;;;;;;;;;;;;;8.92;93.18;95927.03;5069412;28;19926;-60
2022/09/29 08:38:41;;;;;;;;;;;;;;;8.88;92.98;95925.97;5068903;28;19973;-61
2022/09/29 08:41:20;;;;;;;5.93;2.80;;;;;;;8.98;92.11;95925.13;5068540;28;20389;-61
2022/09/29 08:43:48;;;;;;;6.68;3.03;;;;;;;9.06;93.12;95929.94;5067335;28;20119;-60
2022/09/29 08:46:33;;;;;;;6.60;2.70;;;;;;;9.19;91.93;95933.94;5065536;28;20090;-62
2022/09/29 08:49:08;;;;;;;6.88;2.70;;;;;;;9.26;91.68;95932.81;5068328;28;20489;-63
2022/09/29 08:51:42;;;;;;;8.15;3.17;;;;;;;9.26;92.17;95940.91;5067446;28;20484;-65
2022/09/29 08:54:30;;;;;;;5.97;2.50;;;;;;;9.36;92.12;95944.38;5072319;28;20127;-63
2022/09/29 08:57:06;;;;;;;9.50;3.17;;;;;;;9.47;92.92;95937.00;5048584;28;20120;-67
2022/09/29 08:59:33;;;;;;;8.50;2.88;;;;;;;9.46;92.25;95938.09;5050698;28;20095;-64
2022/09/29 09:02:24;;;;;;;5.18;2.30;;;;;;;9.47;91.11;95939.72;5066995;28;20488;-66
2022/09/29 09:04:57;;;;;;;4.80;2.53;;;;;;;9.53;91.43;95945.06;5072251;28;20090;-66
2022/09/29 09:07:38;;;;;;;8.85;2.40;;;;;;;9.62;89.65;95944.19;5063938;28;20048;-66
2022/09/29 09:10:21;;;;;;;4.05;2.13;;;;;;;9.74;87.07;95940.34;5059922;28;20076;-63
2022/09/29 09:13:19;;;;;;;6.20;2.63;;;;;;;9.71;87.91;95940.91;5070395;28;20044;-62
2022/09/29 09:16:00;;;;;;;6.22;2.22;;;;;;;9.74;88.50;95943.06;5073410;28;20066;-62
2022/09/29 09:19:08;;;;;;;6.60;2.47;;;;;;;9.82;87.04;95947.03;5069084;28;20050;-62
2022/09/29 09:21:43;;;;;;;7.05;2.83;;;;;;;9.88;86.40;95954.03;5060001;28;20120;-61
2022/09/29 09:24:45;;;;;;;5.85;2.00;;;;;;;10.01;84.60;95952.56;5066073;28;20049;-62
2022/09/29 09:27:14;;;;;;;;;;;;;;;10.07;84.64;95953.34;5052910;28;20059;-67
2022/09/29 09:29:43;;;;;;;6.60;2.20;;;;;;;9.96;85.36;95953.44;5064321;28;19926;-67
2022/09/29 09:32:16;;;;;;;7.28;2.40;;;;;;;10.04;84.97;95962.00;5067174;28;20052;-61
2022/09/29 09:35:28;;;;;;;7.05;2.17;;;;;;;9.94;85.24;95958.31;5065304;28;20072;-64
2022/09/29 09:38:02;;;;;;;7.20;1.92;;;;;;;10.07;84.50;95964.16;5034145;28;20060;-63
2022/09/29 09:40:37;;;;;;;5.72;2.25;;;;;;;10.05;84.54;95964.44;5076342;28;20119;-62
2022/09/29 09:43:13;;;;;;;4.78;2.47;;;;;;;10.17;84.62;95958.63;5073852;28;20150;-61
2022/09/29 09:45:48;;;;;;;6.40;2.40;;;;;;;10.35;82.37;95953.59;5067638;28;20096;-67
2022/09/29 09:48:32;;;;;;;5.30;2.25;;;;;;;10.36;83.08;95963.38;5067476;28;20044;-62
2022/09/29 09:51:12;;;;;;;10.95;2.45;;;;;;;10.47;83.29;95962.19;5066981;28;20590;-63
2022/09/29 09:53:42;;;;;;;6.20;2.43;;;;;;;10.69;81.24;95962.78;5070392;28;20493;-62
2022/09/29 09:56:36;;;;;;;4.03;1.88;;;;;;;10.79;80.93;95954.53;5066877;28;20131;-61
2022/09/29 09:59:05;;;;;;;;;;;;;;;10.89;81.62;95954.44;5067886;28;20055;-63
2022/09/29 10:01:32;;;;;;;;;;;;;;;10.87;81.33;95951.19;5067121;28;20409;-65
2022/09/29 10:03:58;;;;;;;;;;;;;;;10.80;81.16;95965.09;5067342;28;19924;-62
2022/09/29 10:06:25;;;;;;;;;;;;;;;10.88;80.66;95955.50;5067589;28;19920;-63
2022/09/29 10:08:51;;;;;;;;;;;;;;;10.99;79.67;95958.91;5065746;28;19974;-62
2022/09/29 10:11:17;;;;;;;;;;;;;;;11.13;80.26;95960.94;5067191;28;20224;-62
2022/09/29 10:13:45;;;;;;;;;;;;;;;11.02;79.99;95947.50;5079961;28;20306;-64
2022/09/29 10:16:14;;;;;;;;;;;;;;;11.30;79.04;95961.25;5064368;28;19924;-62
2022/09/29 10:18:41;;;;;;;;;;;;;;;10.90;79.94;95960.66;5065489;28;19986;-62
2022/09/29 10:21:28;;;;;;;;;;;;;;;10.95;79.21;95957.09;5064357;28;20494;-63
2022/09/29 10:23:55;;;;;;;;;;;;;;;10.93;78.88;95962.78;5066431;28;20577;-66
2022/09/29 10:26:40;;;;;;;;;;;;;;;11.17;78.08;95956.53;5067742;28;19924;-65
2022/09/29 10:29:22;;;;;;;;;;;;;;;11.29;76.16;95954.22;5071234;28;20310;-66
2022/09/29 10:32:00;;;;;;;;;;;;;;;11.54;76.15;95963.06;5059982;28;19927;-61
2022/09/29 10:34:27;;;;;;;;;;;;;;;11.64;74.82;95962.13;5066927;28;19978;-63
2022/09/29 10:37:16;;;;;;;5.17;2.10;;;;;;;11.66;74.65;95957.22;5064373;28;20292;-62
2022/09/29 10:39:44;;;;;;;;;;;;;;;11.42;74.84;95965.41;5065060;28;20073;-64
2022/09/29 10:42:19;;;;;;;;;;;;;;;11.52;73.69;95957.16;5071764;28;20022;-63
2022/09/29 10:44:50;;;;;;;;;;;;;;;11.70;73.73;95958.25;5060867;28;20046;-64
2022/09/29 10:47:18;;;;;;;;;;;;;;;11.65;74.30;95963.72;5065833;28;19931;-63
2022/09/29 10:49:44;;;;;;;;;;;;;;;11.82;71.38;95957.78;5071920;28;20402;-62
2022/09/29 10:52:25;;;;;;;;;;;;;;;11.60;74.71;95971.16;5070747;28;20208;-62
2022/09/29 10:54:54;;;;;;;;;;;;;;;11.75;74.71;95951.16;5072622;28;19926;-64
2022/09/29 10:57:23;;;;;;;;;;;;;;;11.92;74.10;95953.31;5063460;28;20380;-66
2022/09/29 10:59:52;;;;;;;;;;;;;;;11.84;74.86;95957.50;5063861;28;20049;-64
2022/09/29 11:02:30;;;;;;;;;;;;;;;11.81;73.77;95955.38;5063495;28;20390;-64
2022/09/29 11:05:00;;;;;;;;;;;;;;;11.92;73.24;95961.44;5064829;28;19920;-64
2022/09/29 11:07:27;;;;;;;;;;;;;;;11.84;73.42;95950.16;5063954;28;19924;-64
2022/09/29 11:09:54;;;;;;;;;;;;;;;12.00;73.05;95955.34;5065201;28;20373;-64
2022/09/29 11:12:26;;;;;;;;;;;;;;;12.14;73.35;95960.84;5073158;28;19927;-64
2022/09/29 11:14:53;;;;;;;;;;;;;;;12.27;72.37;95958.47;5071017;28;20312;-64
2022/09/29 11:17:22;;;;;;;;;;;;;;;12.38;71.89;95959.09;5069164;28;20360;-65
2022/09/29 11:19:53;;;;;;;;;;;;;;;12.45;70.09;95956.78;5063195;28;19934;-62
2022/09/29 11:22:27;;;;;;;;;;;;;;;12.14;70.69;95960.03;5063572;28;19928;-64
2022/09/29 11:25:04;;;;;;;;;;;;;;;11.85;72.27;95961.81;5061407;28;19920;-64
2022/09/29 11:27:39;;;;;;;;;;;;;;;11.96;72.32;95965.19;5070563;28;19928;-62
2022/09/29 11:30:23;;;;;;;;;;;;;;;11.88;73.09;95968.56;5056529;28;20027;-65
2022/09/29 11:32:59;;;;;;;;;;;;;;;12.04;73.09;95966.41;5061030;28;20288;-65
2022/09/29 11:35:26;;;;;;;;;;;;;;;12.31;71.91;95971.13;5065337;28;19930;-65
2022/09/29 11:37:58;;;;;;;;;;;;;;;12.47;69.36;95982.56;5063589;28;20018;-65
2022/09/29 11:40:24;;;;;;;;;;;;;;;12.36;70.31;95976.47;5063723;28;19924;-65
2022/09/29 11:43:01;;;;;;;;;;;;;;;12.30;69.94;95976.84;5064047;28;20054;-65
2022/09/29 11:45:36;;;;;;;;;;;;;;;12.36;70.65;95972.97;5061897;28;20302;-64
2022/09/29 11:48:22;;;;;;;;;;;;;;;12.41;69.01;95972.88;5060322;28;19951;-64
2022/09/29 11:50:58;;;;;;;;;;;;;;;12.56;68.54;95971.78;5066795;28;20507;-63
2022/09/29 11:53:45;;;;;;;;;;;;;;;12.54;69.96;95976.72;5071817;28;19924;-65
2022/09/29 11:56:17;;;;;;;;;;;;;;;12.59;71.00;95970.38;5050551;28;20027;-64
2022/09/29 11:58:47;;;;;;;;;;;;;;;12.73;68.25;95967.69;5062063;28;19924;-64
2022/09/29 12:01:25;;;;;;;;;;;;;;;12.67;68.41;95968.88;5064952;28;19924;-64
2022/09/29 12:04:10;;;;;;;;;;;;;;;12.87;67.01;95973.16;5065983;28;19924;-64
2022/09/29 12:07:04;;;;;;;;;;;;;;;12.90;67.19;95971.72;5065372;28;20380;-62
2022/09/29 12:09:36;;;;;;;;;;;;;;;12.95;66.48;95971.63;5065973;28;20194;-62
2022/09/29 12:12:05;;;;;;;;;;;;;;;12.94;67.29;95976.25;5071671;28;20009;-63
2022/09/29 12:14:57;;;;;;;;;;;;;;;13.07;65.76;95974.66;5085388;28;20037;-64